Time;durP1;ratioP1;P1;durP2;ratioP2;P2;SDS_P1;SDS_P2;PMS_P1;PMS_P2;Temp;Humidity;BMP_temperature;BMP_pressure;BME280_temperature;BME280_humidity;BME280_pressure;Samples;Min_cycle;Max_cycle;Signal;HPM_P1;HPM_P2
2023/04/07 00:00:35;;;;;;;16.50;9.07;;;;;;;4.03;100.00;101324.75;7407871;19;20406;-40
2023/04/07 00:03:05;;;;;;;19.83;10.17;;;;;;;4.03;100.00;101327.31;7393853;19;20465;-39
2023/04/07 00:05:36;;;;;;;14.83;8.43;;;;;;;4.00;100.00;101324.50;7397135;19;20411;-41
2023/04/07 00:08:05;;;;;;;17.93;8.80;;;;;;;4.00;100.00;101333.84;7396262;19;20466;-40
2023/04/07 00:10:35;;;;;;;14.60;8.10;;;;;;;4.00;100.00;101323.63;7398407;19;20399;-39
2023/04/07 00:13:04;;;;;;;16.07;8.50;;;;;;;3.93;100.00;101319.69;7396112;19;20443;-39
2023/04/07 00:15:37;;;;;;;17.50;9.40;;;;;;;3.88;100.00;101306.56;7397374;19;20403;-37
2023/04/07 00:18:06;;;;;;;15.90;9.17;;;;;;;3.84;100.00;101309.66;7396247;19;20439;-39
2023/04/07 00:20:36;;;;;;;16.60;9.30;;;;;;;3.82;100.00;101308.66;7400222;19;20772;-40
2023/04/07 00:23:05;;;;;;;17.73;9.07;;;;;;;3.80;100.00;101307.66;7396024;19;20455;-39
2023/04/07 00:25:35;;;;;;;15.20;8.87;;;;;;;3.78;100.00;101314.28;7396686;19;20392;-38
2023/04/07 00:28:05;;;;;;;15.90;9.10;;;;;;;3.77;100.00;101312.50;7395288;19;20439;-36
2023/04/07 00:30:37;;;;;;;17.10;8.77;;;;;;;3.77;100.00;101307.41;7396762;19;20932;-38
2023/04/07 00:33:06;;;;;;;17.93;9.47;;;;;;;3.73;100.00;101303.72;7394664;19;20434;-39
2023/04/07 00:35:38;;;;;;;21.67;9.07;;;;;;;3.67;100.00;101302.31;7398638;19;20490;-39
2023/04/07 00:38:07;;;;;;;17.87;10.10;;;;;;;3.65;100.00;101305.66;7394861;19;20438;-38
2023/04/07 00:40:37;;;;;;;16.80;9.07;;;;;;;3.62;100.00;101297.78;7396559;19;20486;-39
2023/04/07 00:43:09;;;;;;;14.40;8.93;;;;;;;3.62;100.00;101296.88;7392882;19;21082;-38
2023/04/07 00:45:41;;;;;;;15.13;9.37;;;;;;;3.58;100.00;101289.78;7398575;19;20396;-40
2023/04/07 00:48:11;;;;;;;12.90;8.00;;;;;;;3.56;100.00;101288.72;7394647;19;20447;-40
2023/04/07 00:50:41;;;;;;;15.27;9.20;;;;;;;3.51;100.00;101284.19;7397334;19;20396;-37
2023/04/07 00:53:11;;;;;;;15.80;9.70;;;;;;;3.50;100.00;101278.94;7394202;19;20427;-39
2023/04/07 00:55:40;;;;;;;16.90;9.90;;;;;;;3.46;100.00;101282.03;7396428;19;20404;-41
2023/04/07 00:58:10;;;;;;;15.03;8.60;;;;;;;3.44;100.00;101283.56;7393960;19;21148;-39
2023/04/07 01:00:45;;;;;;;13.10;8.10;;;;;;;3.43;100.00;101281.78;7398926;19;20396;-41
2023/04/07 01:03:20;;;;;;;17.10;9.60;;;;;;;3.41;100.00;101270.56;7394651;19;21032;-39
2023/04/07 01:05:55;;;;;;;14.30;8.40;;;;;;;3.35;100.00;101266.75;7398028;19;20500;-39
2023/04/07 01:08:28;;;;;;;16.33;8.80;;;;;;;3.32;100.00;101263.97;7395760;19;20517;-39
2023/04/07 01:11:02;;;;;;;19.67;8.80;;;;;;;3.29;100.00;101263.75;7399237;19;20419;-43
2023/04/07 01:13:35;;;;;;;18.30;9.90;;;;;;;3.33;100.00;101264.88;7395853;19;20449;-37
2023/04/07 01:16:13;;;;;;;14.23;8.30;;;;;;;3.32;100.00;101263.97;7394931;19;20931;-37
2023/04/07 01:18:43;;;;;;;16.43;9.10;;;;;;;3.27;100.00;101259.28;7391824;19;20446;-39
2023/04/07 01:21:16;;;;;;;18.00;8.43;;;;;;;3.23;100.00;101253.91;7397205;19;20412;-38
2023/04/07 01:23:54;;;;;;;14.57;8.70;;;;;;;3.21;100.00;101255.47;7394637;19;20427;-40
2023/04/07 01:26:28;;;;;;;13.63;8.40;;;;;;;3.16;100.00;101248.19;7395936;19;20928;-40
2023/04/07 01:29:20;;;;;;;16.57;8.77;;;;;;;3.17;100.00;101247.47;7394510;19;20442;-39
2023/04/07 01:31:53;;;;;;;12.80;7.70;;;;;;;3.15;100.00;101244.78;7398084;19;20423;-36
2023/04/07 01:34:23;;;;;;;14.83;8.63;;;;;;;3.12;100.00;101243.66;7392279;19;20447;-39
2023/04/07 01:36:53;;;;;;;13.67;8.23;;;;;;;3.06;100.00;101239.84;7395722;19;20527;-40
2023/04/07 01:39:23;;;;;;;14.30;8.10;;;;;;;3.05;100.00;101243.16;7393613;19;20432;-38
2023/04/07 01:41:54;;;;;;;15.17;8.07;;;;;;;3.02;100.00;101237.78;7395791;19;20428;-40
2023/04/07 01:44:24;;;;;;;15.07;8.30;;;;;;;2.99;100.00;101232.47;7392961;19;21015;-40
2023/04/07 01:46:57;;;;;;;16.40;8.70;;;;;;;2.99;100.00;101227.38;7392621;19;20443;-40
2023/04/07 01:49:27;;;;;;;15.93;8.97;;;;;;;2.95;100.00;101235.53;7390497;19;20854;-39
2023/04/07 01:51:57;;;;;;;14.97;7.93;;;;;;;2.91;100.00;101228.38;7393441;19;21280;-39
2023/04/07 01:54:27;;;;;;;12.60;8.27;;;;;;;2.89;100.00;101229.94;7391943;19;20787;-38
2023/04/07 01:56:57;;;;;;;16.13;7.63;;;;;;;2.87;100.00;101226.38;7392528;19;20435;-40
2023/04/07 01:59:26;;;;;;;14.10;7.60;;;;;;;2.83;100.00;101218.47;7390879;19;20434;-38
2023/04/07 02:01:59;;;;;;;11.40;7.60;;;;;;;2.82;100.00;101219.25;7391293;19;20417;-39
2023/04/07 02:04:34;;;;;;;12.80;7.27;;;;;;;2.83;100.00;101217.59;7390513;19;21390;-38
2023/04/07 02:07:08;;;;;;;15.50;8.03;;;;;;;2.81;100.00;101217.47;7391932;19;20479;-41
2023/04/07 02:09:40;;;;;;;15.73;7.50;;;;;;;2.77;100.00;101217.09;7393803;19;20454;-40
2023/04/07 02:12:10;;;;;;;12.73;7.30;;;;;;;2.73;100.00;101217.63;7391346;19;20789;-38
2023/04/07 02:14:40;;;;;;;11.37;6.80;;;;;;;2.76;100.00;101213.66;7392114;19;20826;-38
2023/04/07 02:17:13;;;;;;;12.47;6.80;;;;;;;2.73;100.00;101213.41;7388336;19;20468;-38
2023/04/07 02:19:43;;;;;;;14.87;7.47;;;;;;;2.69;100.00;101216.47;7395452;19;20800;-39
2023/04/07 02:22:12;;;;;;;13.10;6.87;;;;;;;2.69;100.00;101216.47;7390630;19;20435;-39
2023/04/07 02:24:43;;;;;;;9.50;6.40;;;;;;;2.65;100.00;101219.53;7390165;19;20449;-38
2023/04/07 02:27:13;;;;;;;13.37;6.80;;;;;;;2.64;100.00;101215.22;7389728;19;20426;-38
2023/04/07 02:29:42;;;;;;;15.03;6.90;;;;;;;2.62;100.00;101216.75;7394225;19;20397;-38
2023/04/07 02:32:16;;;;;;;10.93;6.70;;;;;;;2.58;100.00;101212.16;7388961;19;20399;-38
2023/04/07 02:34:46;;;;;;;9.93;6.60;;;;;;;2.55;100.00;101218.81;7391942;19;20355;-38
2023/04/07 02:37:15;;;;;;;20.13;10.93;;;;;;;3.23;100.00;101136.59;7389678;19;20438;-39
2023/04/07 02:39:45;;;;;;;12.87;7.83;;;;;;;3.62;100.00;101169.28;7392587;19;20774;-39
2023/04/07 02:42:15;;;;;;;30.47;15.23;;;;;;;3.88;100.00;101175.47;7391289;19;20395;-39
2023/04/07 02:44:45;;;;;;;11.33;7.03;;;;;;;3.57;100.00;101245.47;7394762;19;20770;-41
2023/04/07 02:47:17;;;;;;;29.33;15.77;;;;;;;3.36;100.00;101252.34;7387957;19;20796;-39
2023/04/07 02:49:47;;;;;;;23.53;11.00;;;;;;;3.42;100.00;101255.38;7394960;19;20407;-40
2023/04/07 02:52:16;;;;;;;16.03;7.27;;;;;;;3.58;100.00;101282.97;7386822;19;20740;-38
2023/04/07 02:54:46;;;;;;;15.63;7.03;;;;;;;3.28;100.00;101287.44;7392615;19;20805;-38
2023/04/07 02:57:16;;;;;;;18.23;8.90;;;;;;;3.21;100.00;101270.78;7388884;19;20462;-39
2023/04/07 02:59:45;;;;;;;12.60;6.90;;;;;;;3.00;100.00;101274.13;7392866;19;20758;-39
2023/04/07 03:02:17;;;;;;;14.33;7.50;;;;;;;3.03;100.00;101262.53;7368836;19;20419;-39
2023/04/07 03:04:47;;;;;;;20.23;9.07;;;;;;;3.01;100.00;101258.97;7389777;19;20491;-38
2023/04/07 03:07:17;;;;;;;15.10;8.27;;;;;;;2.91;100.00;101253.88;7389145;19;20467;-38
2023/04/07 03:09:51;;;;;;;14.23;7.07;;;;;;;2.84;100.00;101260.16;7391796;19;20395;-41
2023/04/07 03:12:21;;;;;;;16.40;8.90;;;;;;;2.97;100.00;101256.94;7391512;19;20422;-38
2023/04/07 03:14:50;;;;;;;14.23;6.77;;;;;;;2.87;100.00;101267.16;7392817;19;20827;-38
2023/04/07 03:17:23;;;;;;;17.13;7.07;;;;;;;2.81;100.00;101260.81;7390640;19;20458;-39
2023/04/07 03:19:53;;;;;;;13.07;6.93;;;;;;;2.77;100.00;101245.13;7394842;19;20410;-39
2023/04/07 03:22:22;;;;;;;11.23;7.13;;;;;;;2.90;100.00;101250.47;7389168;19;20990;-40
2023/04/07 03:24:52;;;;;;;13.70;5.97;;;;;;;2.75;100.00;101262.84;7393638;19;20923;-38
2023/04/07 03:27:21;;;;;;;13.03;7.07;;;;;;;2.75;100.00;101259.41;7390148;19;20812;-39
2023/04/07 03:29:51;;;;;;;13.93;7.00;;;;;;;2.87;100.00;101227.25;7392037;19;20408;-39
2023/04/07 03:32:23;;;;;;;11.47;6.47;;;;;;;2.77;100.00;101251.09;7390492;19;20416;-37
2023/04/07 03:34:53;;;;;;;16.73;8.10;;;;;;;2.75;100.00;101254.28;7391709;19;20406;-41
2023/04/07 03:37:22;;;;;;;13.03;6.40;;;;;;;2.66;100.00;101262.13;7392148;19;20430;-38
2023/04/07 03:39:52;;;;;;;14.17;7.80;;;;;;;2.69;100.00;101252.16;7397758;19;20407;-38
2023/04/07 03:42:21;;;;;;;11.60;5.83;;;;;;;2.68;100.00;101253.78;7395794;19;20434;-38
2023/04/07 03:44:51;;;;;;;12.30;5.33;;;;;;;2.73;100.00;101260.94;7398445;19;20411;-38
2023/04/07 03:47:23;;;;;;;12.60;6.30;;;;;;;2.60;100.00;101259.06;7395218;19;20442;-38
2023/04/07 03:49:53;;;;;;;13.57;6.50;;;;;;;2.59;100.00;101270.00;7401586;19;20411;-37
2023/04/07 03:52:25;;;;;;;13.50;7.40;;;;;;;2.68;100.00;101255.47;7395552;19;20422;-38
2023/04/07 03:54:55;;;;;;;13.17;6.13;;;;;;;2.54;100.00;101273.06;7398353;19;20491;-39
2023/04/07 03:57:25;;;;;;;13.10;6.83;;;;;;;2.64;100.00;101268.72;7395598;19;20471;-38
2023/04/07 03:59:56;;;;;;;12.20;6.30;;;;;;;2.68;100.00;101270.75;7398024;19;20402;-40
2023/04/07 04:02:28;;;;;;;13.77;6.77;;;;;;;2.56;100.00;101288.47;7395342;19;20447;-38
2023/04/07 04:04:58;;;;;;;10.33;5.63;;;;;;;2.49;100.00;101282.00;7398670;19;20483;-38
2023/04/07 04:07:27;;;;;;;14.20;6.90;;;;;;;2.61;100.00;101274.44;7394170;19;20446;-39
2023/04/07 04:09:57;;;;;;;11.53;6.50;;;;;;;2.61;100.00;101271.03;7398302;19;20403;-39
2023/04/07 04:12:27;;;;;;;10.87;6.60;;;;;;;2.63;100.00;101277.13;7394131;19;20423;-39
2023/04/07 04:14:57;;;;;;;11.73;6.80;;;;;;;2.61;100.00;101288.88;7397697;19;20390;-38
2023/04/07 04:17:29;;;;;;;10.90;5.87;;;;;;;2.75;100.00;101273.03;7395061;19;20475;-38
2023/04/07 04:19:59;;;;;;;12.83;6.70;;;;;;;2.58;100.00;101293.69;7398818;19;20868;-41
2023/04/07 04:22:29;;;;;;;15.13;6.60;;;;;;;2.50;100.00;101293.94;7396294;19;20490;-44
2023/04/07 04:24:58;;;;;;;15.60;6.30;;;;;;;2.56;100.00;101288.47;7395293;19;20484;-38
2023/04/07 04:27:28;;;;;;;12.73;6.40;;;;;;;2.62;100.00;101283.88;7396061;19;20427;-42
2023/04/07 04:29:57;;;;;;;11.43;6.33;;;;;;;2.52;100.00;101300.06;7395386;19;20415;-39
2023/04/07 04:32:30;;;;;;;9.77;5.80;;;;;;;2.67;100.00;101299.56;7392537;19;20470;-43
2023/04/07 04:35:00;;;;;;;12.80;6.50;;;;;;;2.73;100.00;101294.97;7396948;19;20445;-41
2023/04/07 04:37:31;;;;;;;12.37;6.43;;;;;;;2.68;100.00;101307.31;7391328;19;20853;-41
2023/04/07 04:40:00;;;;;;;11.80;7.20;;;;;;;2.51;100.00;101316.13;7396817;19;20402;-40
2023/04/07 04:42:32;;;;;;;13.10;6.67;;;;;;;2.46;100.00;101312.28;7395395;19;20427;-40
2023/04/07 04:45:02;;;;;;;11.63;6.20;;;;;;;2.34;100.00;101324.00;7396266;19;20435;-41
2023/04/07 04:47:35;;;;;;;11.20;6.30;;;;;;;2.37;100.00;101316.63;7394253;19;20474;-40
2023/04/07 04:50:05;;;;;;;18.50;6.20;;;;;;;2.34;100.00;101316.34;7396538;19;20412;-39
2023/04/07 04:52:34;;;;;;;11.77;6.43;;;;;;;2.45;100.00;101302.00;7393137;19;20427;-38
2023/04/07 04:55:04;;;;;;;13.17;7.03;;;;;;;2.55;100.00;101300.31;7395322;19;20416;-37
2023/04/07 04:57:35;;;;;;;12.10;6.83;;;;;;;2.41;100.00;101326.31;7395162;19;20390;-37
2023/04/07 05:00:06;;;;;;;10.30;5.67;;;;;;;2.36;100.00;101312.31;7395649;19;20411;-38
2023/04/07 05:02:38;;;;;;;12.53;6.70;;;;;;;2.43;100.00;101305.28;7393686;19;20390;-41
2023/04/07 05:05:09;;;;;;;12.50;6.20;;;;;;;2.65;100.00;101303.63;7397015;19;20489;-39
2023/04/07 05:07:39;;;;;;;13.27;6.90;;;;;;;2.55;100.00;101320.72;7395229;19;20423;-40
2023/04/07 05:10:10;;;;;;;11.70;6.60;;;;;;;2.56;100.00;101313.94;7395631;19;20474;-40
2023/04/07 05:12:40;;;;;;;14.43;6.40;;;;;;;2.58;100.00;101301.34;7395537;19;20379;-39
2023/04/07 05:15:10;;;;;;;13.40;6.90;;;;;;;2.56;100.00;101302.09;7397356;19;20749;-41
2023/04/07 05:17:43;;;;;;;15.43;6.90;;;;;;;2.59;100.00;101305.66;7393767;19;20415;-40
2023/04/07 05:20:15;;;;;;;13.13;6.60;;;;;;;2.57;100.00;101303.00;7396252;19;20419;-40
2023/04/07 05:22:45;;;;;;;14.53;6.60;;;;;;;2.56;100.00;101319.94;7395313;19;20942;-39
2023/04/07 05:25:15;;;;;;;10.67;6.17;;;;;;;2.41;100.00;101326.31;7395197;19;20395;-41
2023/04/07 05:27:44;;;;;;;15.57;9.40;;;;;;;2.42;100.00;101325.56;7394812;19;20426;-40
2023/04/07 05:30:15;;;;;;;10.70;5.60;;;;;;;2.46;100.00;101319.94;7395760;19;20391;-39
2023/04/07 05:32:47;;;;;;;12.77;6.10;;;;;;;2.46;100.00;101322.47;7395245;19;21050;-40
2023/04/07 05:35:17;;;;;;;12.40;6.20;;;;;;;2.67;100.00;101315.72;7396416;19;20394;-39
2023/04/07 05:37:47;;;;;;;11.30;6.00;;;;;;;2.62;100.00;101333.97;7394117;19;20418;-39
2023/04/07 05:40:17;;;;;;;12.20;6.37;;;;;;;2.59;100.00;101346.44;7396722;19;20408;-40
2023/04/07 05:42:49;;;;;;;10.00;5.63;;;;;;;2.52;100.00;101350.13;7395683;19;20439;-40
2023/04/07 05:45:18;;;;;;;11.30;6.47;;;;;;;2.67;100.00;101342.88;7396341;19;20747;-39
2023/04/07 05:47:51;;;;;;;12.23;6.60;;;;;;;2.67;100.00;101365.81;7392529;19;20423;-40
2023/04/07 05:50:21;;;;;;;11.97;5.90;;;;;;;2.67;100.00;101369.25;7396751;19;20833;-39
2023/04/07 05:52:50;;;;;;;14.50;6.87;;;;;;;2.92;100.00;101357.66;7393815;19;20390;-38
2023/04/07 05:55:20;;;;;;;11.60;6.47;;;;;;;2.89;100.00;101393.06;7394017;19;20441;-38
2023/04/07 05:57:49;;;;;;;11.53;5.77;;;;;;;2.93;100.00;101407.88;7394084;19;20413;-38
2023/04/07 06:00:20;;;;;;;10.40;5.67;;;;;;;2.80;100.00;101411.03;7394693;19;20414;-38
2023/04/07 06:02:55;;;;;;;8.17;5.30;;;;;;;2.82;100.00;101412.09;7393473;19;20408;-40
2023/04/07 06:05:25;;;;;;;12.10;6.27;;;;;;;2.86;100.00;101418.34;7395892;19;20428;-39
2023/04/07 06:07:55;;;;;;;15.30;7.50;;;;;;;2.84;100.00;101420.75;7393043;19;20987;-42
2023/04/07 06:10:25;;;;;;;10.60;5.87;;;;;;;3.07;100.00;101425.19;7395647;19;20419;-39
2023/04/07 06:12:55;;;;;;;12.30;6.33;;;;;;;3.13;100.00;101440.09;7391852;19;20439;-40
2023/04/07 06:15:26;;;;;;;9.87;5.63;;;;;;;3.03;100.00;101446.09;7395690;19;20466;-39
2023/04/07 06:17:58;;;;;;;12.00;6.60;;;;;;;3.07;100.00;101460.91;7391490;19;20447;-40
2023/04/07 06:20:27;;;;;;;11.13;6.47;;;;;;;3.12;100.00;101483.34;7394696;19;20762;-39
2023/04/07 06:22:59;;;;;;;9.77;5.73;;;;;;;3.16;100.00;101485.38;7390778;19;20440;-39
2023/04/07 06:25:28;;;;;;;10.80;6.60;;;;;;;3.24;100.00;101489.47;7395677;19;20438;-39
2023/04/07 06:27:58;;;;;;;13.40;6.77;;;;;;;3.28;100.00;101500.81;7390602;19;20435;-39
2023/04/07 06:30:27;;;;;;;10.93;6.90;;;;;;;3.36;100.00;101500.69;7394407;19;20444;-39
2023/04/07 06:33:02;;;;;;;13.47;6.83;;;;;;;3.42;100.00;101509.59;7390725;19;20439;-40
2023/04/07 06:35:32;;;;;;;10.83;6.10;;;;;;;3.53;100.00;101521.59;7394560;19;20435;-39
2023/04/07 06:38:01;;;;;;;13.30;6.90;;;;;;;3.60;100.00;101526.44;7388148;19;20462;-39
2023/04/07 06:40:31;;;;;;;11.90;6.20;;;;;;;3.67;100.00;101539.69;7393044;19;20428;-40
2023/04/07 06:43:00;;;;;;;11.20;6.43;;;;;;;3.72;100.00;101539.31;7389034;19;20431;-39
2023/04/07 06:45:30;;;;;;;15.70;7.83;;;;;;;3.81;100.00;101551.06;7394631;19;20780;-39
2023/04/07 06:48:02;;;;;;;16.40;9.70;;;;;;;3.86;100.00;101555.78;7386905;19;20461;-41
2023/04/07 06:50:32;;;;;;;18.10;7.40;;;;;;;4.01;100.00;101571.44;7390300;19;20415;-39
2023/04/07 06:53:01;;;;;;;15.77;8.40;;;;;;;4.09;100.00;101574.63;7388431;19;20470;-41
2023/04/07 06:55:31;;;;;;;13.20;7.50;;;;;;;4.17;100.00;101577.81;7393785;19;20403;-41
2023/04/07 06:58:01;;;;;;;16.57;8.03;;;;;;;4.25;100.00;101581.88;7388553;19;20434;-39
2023/04/07 07:00:30;;;;;;;13.40;6.30;;;;;;;4.33;100.00;101590.16;7393412;19;20955;-40
2023/04/07 07:03:03;;;;;;;15.07;7.80;;;;;;;4.44;100.00;101597.03;7389107;19;20419;-39
2023/04/07 07:05:33;;;;;;;13.47;7.00;;;;;;;4.54;100.00;101608.88;7393335;19;20424;-40
2023/04/07 07:08:03;;;;;;;14.03;6.47;;;;;;;4.65;100.00;101608.81;7386703;19;20463;-40
2023/04/07 07:10:32;;;;;;;11.40;6.40;;;;;;;4.76;100.00;101617.38;7392462;19;20419;-39
2023/04/07 07:13:02;;;;;;;13.90;6.40;;;;;;;4.87;100.00;101619.06;7399476;19;20979;-40
2023/04/07 07:15:32;;;;;;;13.23;6.80;;;;;;;4.98;100.00;101625.94;7398986;19;20434;-40
2023/04/07 07:18:04;;;;;;;11.10;6.30;;;;;;;5.08;100.00;101627.53;7394269;19;20995;-40
2023/04/07 07:20:34;;;;;;;9.57;5.97;;;;;;;5.16;100.00;101629.81;7399715;19;20782;-41
2023/04/07 07:23:03;;;;;;;14.33;5.80;;;;;;;5.27;100.00;101645.22;7393433;19;20431;-40
2023/04/07 07:25:35;;;;;;;10.83;6.03;;;;;;;5.39;100.00;101641.84;7401585;19;20484;-37
2023/04/07 07:28:04;;;;;;;9.30;5.90;;;;;;;5.47;100.00;101648.44;7394225;19;20459;-38
2023/04/07 07:30:34;;;;;;;12.20;6.57;;;;;;;5.56;100.00;101650.81;7402171;19;20407;-39
2023/04/07 07:33:06;;;;;;;12.20;6.50;;;;;;;5.63;99.31;101655.63;7396111;19;20423;-40
2023/04/07 07:35:36;;;;;;;11.57;6.43;;;;;;;5.68;99.39;101663.63;7401024;19;20415;-41
2023/04/07 07:38:06;;;;;;;10.63;6.10;;;;;;;5.77;99.13;101663.44;7394656;19;20438;-38
2023/04/07 07:40:35;;;;;;;14.53;6.03;;;;;;;5.91;99.05;101672.19;7398573;19;20431;-38
2023/04/07 07:43:05;;;;;;;9.03;5.50;;;;;;;6.01;98.79;101673.78;7397109;19;20443;-38
2023/04/07 07:45:34;;;;;;;10.60;5.93;;;;;;;6.13;97.66;101678.94;7398850;19;20832;-38
2023/04/07 07:48:07;;;;;;;11.10;5.50;;;;;;;6.23;97.07;101686.53;7393275;19;20427;-38
2023/04/07 07:50:36;;;;;;;15.10;7.73;;;;;;;6.32;96.37;101697.47;7399042;19;20415;-39
2023/04/07 07:53:06;;;;;;;13.60;7.23;;;;;;;6.31;96.01;101708.50;7393949;19;20450;-39
2023/04/07 07:55:35;;;;;;;14.77;6.40;;;;;;;6.37;95.39;101704.63;7397998;19;20415;-38
2023/04/07 07:58:05;;;;;;;17.43;6.60;;;;;;;6.37;93.35;101713.22;7394035;19;20431;-37
2023/04/07 08:00:35;;;;;;;9.47;5.33;;;;;;;6.44;93.37;101717.09;7398112;19;20417;-38
2023/04/07 08:03:08;;;;;;;9.40;5.13;;;;;;;6.55;93.00;101717.88;7391016;19;20439;-38
2023/04/07 08:05:37;;;;;;;69.50;31.90;;;;;;;6.99;96.87;101714.22;7398107;19;20408;-38
2023/04/07 08:08:07;;;;;;;20.40;9.80;;;;;;;7.40;98.33;101712.81;7393347;19;20443;-40
2023/04/07 08:10:36;;;;;;;10.37;5.70;;;;;;;7.40;92.74;101744.50;7400989;19;20400;-40
2023/04/07 08:13:06;;;;;;;23.87;12.30;;;;;;;7.65;94.86;101737.63;7393368;19;20446;-40
2023/04/07 08:15:36;;;;;;;17.20;9.07;;;;;;;7.65;91.29;101758.19;7397706;19;20408;-39
2023/04/07 08:18:08;;;;;;;16.20;8.77;;;;;;;7.52;89.97;101758.97;7393440;19;20470;-39
2023/04/07 08:20:38;;;;;;;29.50;16.50;;;;;;;7.91;91.84;101762.56;7397618;19;20439;-41
2023/04/07 08:23:07;;;;;;;17.17;9.50;;;;;;;8.12;89.92;101777.66;7392095;19;20457;-40
2023/04/07 08:25:38;;;;;;;17.43;9.13;;;;;;;8.09;89.32;101774.88;7397352;19;20788;-40
2023/04/07 08:28:08;;;;;;;16.83;9.40;;;;;;;8.19;89.78;101782.44;7391618;19;20435;-39
2023/04/07 08:30:37;;;;;;;17.03;5.80;;;;;;;7.97;87.14;101780.06;7400315;19;20416;-39
2023/04/07 08:33:10;;;;;;;9.17;4.70;;;;;;;7.86;86.64;101781.91;7386775;19;20443;-40
2023/04/07 08:35:39;;;;;;;14.37;7.03;;;;;;;8.20;87.67;101775.63;7396891;19;20407;-40
2023/04/07 08:38:09;;;;;;;16.07;6.40;;;;;;;8.22;87.69;101780.03;7391160;19;20456;-39
2023/04/07 08:40:39;;;;;;;9.97;5.20;;;;;;;8.24;86.80;101782.72;7399884;19;20781;-39
2023/04/07 08:43:10;;;;;;;9.80;5.60;;;;;;;8.28;86.49;101774.44;7393103;19;20447;-42
2023/04/07 08:45:42;;;;;;;16.80;8.80;;;;;;;8.47;86.78;101784.25;7397202;19;20415;-39
2023/04/07 08:48:19;;;;;;;9.03;4.70;;;;;;;8.61;86.22;101789.50;7392613;19;20435;-39
2023/04/07 08:50:51;;;;;;;10.43;5.60;;;;;;;8.86;86.03;101786.84;7397896;19;20407;-39
2023/04/07 08:53:26;;;;;;;14.03;6.77;;;;;;;9.02;86.46;101791.31;7394054;19;21058;-40
2023/04/07 08:55:56;;;;;;;8.17;4.63;;;;;;;9.00;83.23;101799.72;7396813;19;20768;-39
2023/04/07 08:58:26;;;;;;;9.10;5.20;;;;;;;8.75;82.60;101790.38;7390934;19;20465;-40
2023/04/07 09:00:56;;;;;;;12.97;5.30;;;;;;;8.67;81.72;101795.03;7396836;19;21059;-40
2023/04/07 09:03:29;;;;;;;11.20;5.57;;;;;;;8.70;82.08;101802.06;7393111;19;20435;-40
2023/04/07 09:05:59;;;;;;;10.83;5.70;;;;;;;8.81;82.51;101795.94;7395569;19;20932;-40
2023/04/07 09:08:29;;;;;;;11.80;6.27;;;;;;;8.85;81.96;101791.88;7393493;19;20439;-41
2023/04/07 09:10:59;;;;;;;10.40;5.53;;;;;;;8.99;82.74;101792.78;7396424;19;20399;-39
2023/04/07 09:13:30;;;;;;;9.90;5.40;;;;;;;8.98;81.13;101798.72;7393746;19;20770;-40
2023/04/07 09:16:02;;;;;;;18.10;6.40;;;;;;;8.84;80.27;101796.16;7393805;19;20442;-41
2023/04/07 09:18:34;;;;;;;15.33;6.43;;;;;;;8.74;79.25;101801.47;7389245;19;20443;-43
2023/04/07 09:21:06;;;;;;;12.03;6.33;;;;;;;8.67;78.62;101807.88;7398110;19;20399;-38
2023/04/07 09:23:37;;;;;;;10.03;5.50;;;;;;;8.71;79.29;101797.00;7393020;19;20424;-39
2023/04/07 09:26:23;;;;;;;9.60;5.93;;;;;;;8.82;78.95;101797.72;7394369;19;20416;-39
2023/04/07 09:28:55;;;;;;;12.37;6.97;;;;;;;8.93;80.76;101795.88;7391678;19;20905;-41
2023/04/07 09:31:27;;;;;;;16.20;8.03;;;;;;;9.03;79.18;101794.78;7397795;19;20416;-39
2023/04/07 09:34:00;;;;;;;13.80;7.33;;;;;;;9.03;78.33;101793.06;7392387;19;20443;-40
2023/04/07 09:36:31;;;;;;;19.23;8.90;;;;;;;9.20;78.27;101793.28;7396682;19;20774;-41
2023/04/07 09:39:10;;;;;;;15.23;8.63;;;;;;;9.36;78.57;101799.41;7392797;19;20442;-40
2023/04/07 09:41:40;;;;;;;14.53;8.13;;;;;;;9.51;77.47;101800.38;7396041;19;20448;-40
2023/04/07 09:44:10;;;;;;;21.00;10.47;;;;;;;9.43;77.91;101787.00;7392103;19;20494;-39
2023/04/07 09:46:50;;;;;;;9.17;5.30;;;;;;;9.24;77.20;101797.84;7396403;19;20436;-39
2023/04/07 09:49:23;;;;;;;9.77;5.13;;;;;;;9.17;76.30;101787.91;7393219;19;20438;-38
2023/04/07 09:51:57;;;;;;;14.67;7.50;;;;;;;9.11;76.06;101788.44;7397021;19;20408;-42
2023/04/07 09:54:34;;;;;;;12.20;4.93;;;;;;;9.15;75.84;101786.94;7393853;19;20439;-38
2023/04/07 09:57:08;;;;;;;10.23;5.43;;;;;;;9.05;74.72;101788.94;7393339;19;20510;-40
2023/04/07 09:59:41;;;;;;;9.23;5.40;;;;;;;9.24;76.12;101791.78;7394305;19;20450;-39
2023/04/07 10:02:10;;;;;;;13.80;6.57;;;;;;;9.43;77.23;101783.53;7391217;19;20422;-38
2023/04/07 10:04:43;;;;;;;14.70;5.13;;;;;;;9.40;74.07;101788.50;7392783;19;20758;-39
2023/04/07 10:07:12;;;;;;;15.40;7.57;;;;;;;9.52;74.74;101790.94;7390678;19;20435;-38
2023/04/07 10:09:42;;;;;;;69.90;23.10;;;;;;;9.79;77.64;101807.25;7395154;19;20404;-40
2023/04/07 10:12:12;;;;;;;10.77;5.80;;;;;;;9.97;76.00;101812.66;7391007;19;20419;-39
2023/04/07 10:14:45;;;;;;;9.27;5.67;;;;;;;9.82;74.07;101810.03;7393363;19;20959;-40
2023/04/07 10:17:22;;;;;;;13.90;6.23;;;;;;;9.77;73.64;101810.50;7389838;19;20451;-39
2023/04/07 10:19:58;;;;;;;15.97;8.10;;;;;;;9.61;74.27;101803.50;7395405;19;20453;-40
2023/04/07 10:22:29;;;;;;;16.20;6.80;;;;;;;9.57;74.77;101803.34;7391738;19;20432;-40
2023/04/07 10:25:01;;;;;;;9.40;5.03;;;;;;;9.78;75.86;101808.03;7394554;19;20423;-42
2023/04/07 10:27:35;;;;;;;15.87;7.77;;;;;;;9.94;77.22;101814.16;7392325;19;20429;-38
2023/04/07 10:30:05;;;;;;;15.77;7.77;;;;;;;10.22;79.84;101826.13;7395446;19;20399;-37
2023/04/07 10:32:47;;;;;;;12.10;6.80;;;;;;;10.19;78.57;101818.19;7390648;19;20797;-39
2023/04/07 10:35:20;;;;;;;12.00;6.40;;;;;;;10.23;78.86;101817.59;7392592;19;20785;-39
2023/04/07 10:38:12;;;;;;;27.40;11.87;;;;;;;10.31;79.63;101818.06;7391251;19;20951;-38
2023/04/07 10:40:44;;;;;;;27.37;11.73;;;;;;;10.15;80.54;101823.97;7393628;19;20407;-43
2023/04/07 10:43:14;;;;;;;14.23;8.00;;;;;;;10.12;80.77;101814.38;7390707;19;20463;-37
2023/04/07 10:45:58;;;;;;;15.33;8.77;;;;;;;10.43;80.78;101816.25;7390653;19;20400;-41
2023/04/07 10:48:32;;;;;;;11.90;5.87;;;;;;;10.21;79.13;101814.03;7388210;19;20451;-42
2023/04/07 10:51:19;;;;;;;11.70;6.10;;;;;;;10.06;79.34;101814.00;7392698;19;20956;-43
2023/04/07 10:54:25;;;;;;;19.00;8.60;;;;;;;10.21;80.75;101811.47;7391090;19;20422;-39
2023/04/07 10:57:12;;;;;;;16.53;7.87;;;;;;;10.21;79.02;101814.03;7393110;19;20417;-41
2023/04/07 11:00:14;;;;;;;38.43;17.83;;;;;;;10.23;81.13;101815.00;7393053;19;20439;-41
2023/04/07 11:02:45;;;;;;;17.40;8.03;;;;;;;10.13;81.01;101821.31;7388644;19;20419;-38
2023/04/07 11:05:24;;;;;;;18.70;10.03;;;;;;;10.32;82.56;101814.69;7393394;19;20399;-41
2023/04/07 11:07:58;;;;;;;33.93;15.23;;;;;;;10.37;80.62;101818.44;7389213;19;20422;-40
2023/04/07 11:10:27;;;;;;;16.90;8.03;;;;;;;10.40;80.34;101836.66;7394555;19;20426;-39
2023/04/07 11:13:05;;;;;;;18.67;9.47;;;;;;;10.27;78.27;101833.34;7389823;19;20447;-41
2023/04/07 11:15:35;;;;;;;15.70;8.13;;;;;;;10.21;79.04;101824.34;7392444;19;20479;-39
2023/04/07 11:18:19;;;;;;;46.73;21.23;;;;;;;10.23;80.29;101820.16;7388505;19;20446;-46
2023/04/07 11:20:51;;;;;;;28.50;10.77;;;;;;;10.43;82.08;101830.81;7394356;19;20935;-40
2023/04/07 11:23:26;;;;;;;23.17;9.40;;;;;;;10.39;77.86;101820.31;7387850;19;20460;-39
2023/04/07 11:26:02;;;;;;;15.23;8.37;;;;;;;10.42;78.92;101821.28;7394174;19;20414;-39
2023/04/07 11:28:32;;;;;;;18.53;9.20;;;;;;;10.30;79.14;101827.47;7388408;19;20445;-40
2023/04/07 11:31:01;;;;;;;15.23;7.30;;;;;;;10.22;77.61;101820.97;7389507;19;20400;-39
2023/04/07 11:33:35;;;;;;;30.73;13.77;;;;;;;10.47;78.01;101831.09;7389483;19;20514;-39
2023/04/07 11:36:06;;;;;;;12.57;6.43;;;;;;;10.47;78.37;101832.78;7393219;19;20415;-38
2023/04/07 11:38:41;;;;;;;15.07;6.70;;;;;;;10.54;79.52;101829.78;7387104;19;20473;-38